Apalachia Observed Data For Previous 48 Hours

Caption
Day and Hour Reservoir Elevation (behind dam)* Tailwater Elevation (below dam)* Average Hourly Discharge*
1/17/2018 2 AM EST 1,277.22 839.52 1,508
1/17/2018 3 AM EST 1,277.33 837.48 73
1/17/2018 4 AM EST 1,277.33 837.48 30
1/17/2018 5 AM EST 1,277.27 839.50 598
1/17/2018 6 AM EST 1,277.16 839.84 1,783
1/17/2018 7 AM EST 1,277.16 840.06 3,139
1/17/2018 8 AM EST 1,277.42 840.06 3,131
1/17/2018 9 AM EST 1,277.63 840.05 3,121
1/17/2018 10 AM EST 1,278.20 840.07 3,125
1/17/2018 11 AM EST 1,278.07 840.07 3,121
1/17/2018 12 PM EST 1,277.97 840.11 3,119
1/17/2018 1 PM EST 1,277.90 839.86 2,916
1/17/2018 2 PM EST 1,277.74 839.49 1,436
1/17/2018 3 PM EST 1,277.49 837.43 81
1/17/2018 4 PM EST 1,277.49 837.43 30
1/17/2018 5 PM EST 1,277.59 837.51 32
1/17/2018 6 PM EST 1,277.59 839.68 1,648
1/17/2018 7 PM EST 1,277.61 840.08 3,147
1/17/2018 8 PM EST 1,277.70 840.04 3,133
1/17/2018 9 PM EST 1,277.67 840.06 3,138
1/17/2018 10 PM EST 1,277.72 840.05 3,119
1/17/2018 11 PM EST 1,277.80 840.03 3,122
1/18/2018 12 AM EST 1,277.48 839.50 1,516
1/18/2018 1 AM EST 1,277.37 837.39 75
1/18/2018 2 AM EST 1,277.48 837.35 30
1/18/2018 3 AM EST 1,277.47 837.33 30
1/18/2018 4 AM EST 1,277.47 839.48 1,430
1/18/2018 5 AM EST 1,277.28 839.50 1,461
1/18/2018 6 AM EST 1,277.20 840.54 2,845
1/18/2018 7 AM EST 1,277.19 840.53 2,858
1/18/2018 8 AM EST 1,277.70 840.01 3,096
1/18/2018 9 AM EST 1,277.70 840.54 2,895
1/18/2018 10 AM EST 1,278.30 840.52 2,844
1/18/2018 11 AM EST 1,277.97 840.52 2,839
1/18/2018 12 PM EST 1,277.96 840.54 2,842
1/18/2018 1 PM EST 1,277.81 839.63 2,541
1/18/2018 2 PM EST 1,277.48 839.47 1,439
1/18/2018 3 PM EST 1,277.42 837.31 74
1/18/2018 4 PM EST 1,277.35 837.32 30
1/18/2018 5 PM EST 1,277.44 837.50 33
1/18/2018 6 PM EST 1,277.25 839.65 1,451
1/18/2018 7 PM EST 1,277.19 840.56 2,843
1/18/2018 8 PM EST 1,277.39 840.56 2,856
1/18/2018 9 PM EST 1,277.67 840.56 2,847
1/18/2018 10 PM EST 1,277.73 840.56 2,857
1/18/2018 11 PM EST 1,277.71 840.56 2,839
1/19/2018 12 AM EST 1,277.50 839.52 1,508

Elevations are in feet above sea level. Discharges are in cubic feet per second and are reported at the end of the hour.